createdAt,value
2018-05-05T00:00:50.588Z,5.50
2018-05-05T00:01:50.589Z,5.80
2018-05-05T00:03:49.649Z,5.60
2018-05-05T00:04:48.164Z,5.70
2018-05-05T00:06:48.630Z,5.60
2018-05-05T00:07:48.604Z,5.30
2018-05-05T00:09:49.565Z,6.30
2018-05-05T00:10:48.547Z,5.90
2018-05-05T00:12:46.685Z,6.40
2018-05-05T00:13:46.642Z,6.40
2018-05-05T00:15:48.094Z,5.50
2018-05-05T00:16:47.615Z,7.60
2018-05-05T00:18:47.529Z,6.40
2018-05-05T00:19:47.558Z,5.80
2018-05-05T00:21:48.032Z,6.60
2018-05-05T00:22:48.480Z,5.90
2018-05-05T00:24:48.923Z,6.50
2018-05-05T00:25:48.920Z,6.20
2018-05-05T00:27:50.331Z,5.90
2018-05-05T00:28:48.825Z,6.50
2018-05-05T00:30:50.277Z,5.60
2018-05-05T00:31:49.315Z,5.90
2018-05-05T00:33:49.760Z,6.30
2018-05-05T00:34:49.721Z,7.00
2018-05-05T00:36:50.677Z,6.40
2018-05-05T00:37:50.199Z,5.80
2018-05-05T00:39:51.173Z,6.40
2018-05-05T00:40:50.654Z,6.80
2018-05-05T00:42:51.666Z,6.00
2018-05-05T00:43:51.108Z,5.60
2018-05-05T00:45:49.564Z,6.40
2018-05-05T00:46:49.012Z,5.80
2018-05-05T00:48:50.495Z,6.30
2018-05-05T00:49:49.469Z,5.70
2018-05-05T00:51:49.921Z,6.00
2018-05-05T00:52:50.390Z,6.00
2018-05-05T00:54:47.950Z,5.70
2018-05-05T00:55:47.958Z,5.90
2018-05-05T00:57:48.998Z,5.80
2018-05-05T00:58:48.946Z,6.10
2018-05-05T01:00:46.882Z,6.10
2018-05-05T01:01:47.396Z,6.00
2018-05-05T01:03:47.964Z,6.40
2018-05-05T01:04:46.995Z,6.40
2018-05-05T01:06:47.502Z,5.90
2018-05-05T01:07:48.461Z,6.30
2018-05-05T01:09:47.882Z,6.10
2018-05-05T01:10:47.940Z,5.20
2018-05-05T01:12:49.372Z,6.20
2018-05-05T01:13:48.327Z,6.30
2018-05-05T01:15:48.803Z,6.10
2018-05-05T01:16:48.714Z,6.10
2018-05-05T01:18:49.323Z,6.10
2018-05-05T01:19:49.246Z,6.30
2018-05-05T01:21:49.672Z,5.60
2018-05-05T01:22:50.138Z,6.10
2018-05-05T01:24:50.150Z,5.70
2018-05-05T01:25:50.573Z,5.70
2018-05-05T01:27:51.581Z,5.90
2018-05-05T01:28:50.530Z,6.00
2018-05-05T01:30:50.999Z,5.90
2018-05-05T01:31:52.516Z,6.50
2018-05-05T01:33:51.956Z,5.90
2018-05-05T01:34:51.927Z,6.20
2018-05-05T01:36:52.945Z,6.00
2018-05-05T01:37:51.935Z,5.80
2018-05-05T01:39:52.986Z,6.30
2018-05-05T01:40:52.386Z,6.20
2018-05-05T01:42:53.680Z,6.70
2018-05-05T01:43:55.248Z,5.70
2018-05-05T01:45:55.506Z,6.40
2018-05-05T01:46:54.527Z,6.10
2018-05-05T01:48:54.517Z,5.80
2018-05-05T01:49:54.548Z,6.40
2018-05-05T01:51:56.855Z,5.20
2018-05-05T01:52:54.917Z,6.20
2018-05-05T01:54:53.371Z,5.80
2018-05-05T01:55:52.815Z,5.70
2018-05-05T01:57:54.813Z,5.50
2018-05-05T01:58:53.791Z,5.80
2018-05-05T02:00:52.211Z,5.90
2018-05-05T02:01:51.231Z,5.70
2018-05-05T02:03:52.637Z,6.10
2018-05-05T02:04:51.648Z,6.50
2018-05-05T02:06:52.636Z,6.00
2018-05-05T02:07:52.105Z,6.00
2018-05-05T02:09:50.080Z,5.80
2018-05-05T02:10:50.035Z,5.70
2018-05-05T02:12:51.492Z,6.30
2018-05-05T02:13:50.459Z,5.70
2018-05-05T02:15:52.507Z,6.10
2018-05-05T02:16:50.875Z,6.30
2018-05-05T02:18:51.415Z,5.90
2018-05-05T02:19:52.432Z,6.20
2018-05-05T02:21:51.805Z,5.50
2018-05-05T02:22:51.817Z,5.50
2018-05-05T02:24:52.745Z,5.80
2018-05-05T02:25:52.781Z,5.70
2018-05-05T02:27:52.694Z,6.30
2018-05-05T02:28:52.663Z,5.90
2018-05-05T02:30:52.100Z,5.80
2018-05-05T02:31:50.767Z,5.60
2018-05-05T02:33:50.692Z,5.90
2018-05-05T02:34:48.860Z,6.80
2018-05-05T02:36:50.278Z,5.90
2018-05-05T02:37:49.323Z,6.40
2018-05-05T02:39:49.816Z,5.80
2018-05-05T02:40:49.824Z,6.10
2018-05-05T02:42:50.201Z,6.30
2018-05-05T02:43:50.713Z,5.50
2018-05-05T02:45:50.733Z,6.30
2018-05-05T02:46:50.613Z,6.10
2018-05-05T02:48:51.547Z,5.90
2018-05-05T02:49:51.107Z,6.30
2018-05-05T02:51:52.067Z,5.90
2018-05-05T02:52:51.610Z,5.60
2018-05-05T02:54:53.001Z,5.90
2018-05-05T02:55:52.000Z,5.50
2018-05-05T02:57:52.450Z,5.50
2018-05-05T02:58:52.527Z,5.40
2018-05-05T03:00:52.909Z,6.30
2018-05-05T03:01:53.358Z,5.60
2018-05-05T03:03:53.335Z,5.50
2018-05-05T03:04:53.801Z,5.70
2018-05-05T03:06:53.795Z,5.80
2018-05-05T03:07:53.755Z,5.70
2018-05-05T03:09:54.211Z,5.50
2018-05-05T03:10:54.260Z,5.30
2018-05-05T03:12:52.678Z,6.20
2018-05-05T03:13:52.368Z,5.70
2018-05-05T03:15:53.317Z,5.80
2018-05-05T03:16:52.819Z,6.20
2018-05-05T03:18:53.214Z,5.80
2018-05-05T03:19:53.158Z,5.60
2018-05-05T03:21:53.620Z,5.70
2018-05-05T03:22:54.171Z,5.80
2018-05-05T03:24:54.054Z,5.70
2018-05-05T03:25:54.048Z,6.00
2018-05-05T03:27:54.578Z,5.50
2018-05-05T03:28:54.480Z,6.40
2018-05-05T03:30:54.926Z,5.40
2018-05-05T03:31:55.423Z,5.90
2018-05-05T03:33:55.842Z,6.20
2018-05-05T03:34:55.347Z,6.40
2018-05-05T03:36:55.857Z,6.10
2018-05-05T03:37:56.785Z,5.90
2018-05-05T03:39:57.255Z,6.00
2018-05-05T03:40:56.207Z,6.30
2018-05-05T03:42:54.759Z,6.50
2018-05-05T03:43:54.364Z,5.90
2018-05-05T03:45:55.744Z,7.00
2018-05-05T03:46:54.721Z,6.20
2018-05-05T03:48:56.229Z,5.80
2018-05-05T03:49:56.175Z,5.60
2018-05-05T03:51:55.689Z,5.70
2018-05-05T03:52:55.658Z,6.20
2018-05-05T03:54:56.089Z,5.90
2018-05-05T03:55:56.588Z,6.00
2018-05-05T03:57:57.034Z,5.80
2018-05-05T03:58:57.018Z,6.00
2018-05-05T04:00:57.524Z,6.00
2018-05-05T04:01:56.952Z,6.80
2018-05-05T04:03:57.423Z,6.00
2018-05-05T04:04:57.917Z,6.00
2018-05-05T04:06:57.864Z,6.30
2018-05-05T04:07:57.955Z,5.70
2018-05-05T04:09:58.293Z,6.30
2018-05-05T04:10:58.746Z,5.70
2018-05-05T04:12:58.733Z,5.40
2018-05-05T04:13:59.248Z,5.60
2018-05-05T04:15:59.657Z,6.00
2018-05-05T04:16:59.707Z,6.10
2018-05-05T04:19:00.548Z,6.40
2018-05-05T04:20:00.090Z,5.80
2018-05-05T04:22:00.559Z,6.10
2018-05-05T04:22:59.995Z,6.30
2018-05-05T04:25:00.458Z,6.00
2018-05-05T04:26:00.469Z,6.20
2018-05-05T04:28:00.909Z,6.00
2018-05-05T04:29:01.357Z,5.90
2018-05-05T04:31:01.796Z,5.80
2018-05-05T04:32:01.300Z,6.10
2018-05-05T04:34:02.752Z,6.20
2018-05-05T04:35:01.744Z,5.90
2018-05-05T04:37:02.265Z,6.00
2018-05-05T04:38:02.232Z,5.70
2018-05-05T04:40:02.672Z,6.80
2018-05-05T04:41:03.176Z,6.10
2018-05-05T04:43:03.066Z,6.40
2018-05-05T04:44:03.169Z,6.40
2018-05-05T04:46:03.624Z,6.80
2018-05-05T04:47:03.939Z,6.20
2018-05-05T04:49:03.928Z,6.80
2018-05-05T04:50:03.917Z,7.00
2018-05-05T04:52:04.880Z,6.10
2018-05-05T04:53:04.513Z,6.30
2018-05-05T04:55:05.302Z,6.70
2018-05-05T04:56:04.803Z,6.40
2018-05-05T04:58:05.737Z,7.00
2018-05-05T04:59:05.271Z,6.90
2018-05-05T05:01:06.687Z,5.60
2018-05-05T05:02:05.727Z,5.30
2018-05-05T05:04:06.217Z,5.50
2018-05-05T05:05:06.184Z,5.70
2018-05-05T05:07:06.595Z,6.00
2018-05-05T05:08:07.579Z,5.90
2018-05-05T05:10:07.524Z,6.20
2018-05-05T05:11:08.054Z,6.00
2018-05-05T05:13:07.567Z,5.60
2018-05-05T05:14:07.504Z,5.40
2018-05-05T05:16:09.431Z,5.90
2018-05-05T05:17:09.453Z,5.70
2018-05-05T05:19:08.357Z,5.40
2018-05-05T05:20:08.345Z,5.40
2018-05-05T05:22:10.287Z,5.50
2018-05-05T05:23:09.475Z,5.80
2018-05-05T05:25:07.955Z,5.00
2018-05-05T05:26:07.424Z,5.80
2018-05-05T05:28:06.367Z,6.50
2018-05-05T05:29:05.405Z,5.80
2018-05-05T05:31:05.876Z,5.30
2018-05-05T05:32:05.795Z,5.30
2018-05-05T05:34:08.338Z,5.10
2018-05-05T05:35:07.263Z,5.00
2018-05-05T05:37:06.835Z,5.30
2018-05-05T05:38:07.214Z,4.80
2018-05-05T05:40:07.738Z,5.10
2018-05-05T05:41:08.703Z,5.40
2018-05-05T05:43:07.736Z,6.60
2018-05-05T05:44:07.604Z,5.90
2018-05-05T05:46:08.639Z,5.80
2018-05-05T05:47:08.017Z,4.80
2018-05-05T05:49:08.515Z,4.70
2018-05-05T05:50:08.974Z,4.90
2018-05-05T05:52:09.997Z,4.60
2018-05-05T05:53:10.433Z,4.60
2018-05-05T05:55:08.407Z,4.90
2018-05-05T05:56:08.390Z,5.40
2018-05-05T05:58:10.383Z,5.10
2018-05-05T05:59:08.809Z,4.50
2018-05-05T06:01:07.295Z,4.80
2018-05-05T06:02:06.378Z,4.50
2018-05-05T06:04:07.848Z,4.50
2018-05-05T06:05:07.859Z,3.80
2018-05-05T06:07:06.451Z,4.50
2018-05-05T06:08:05.842Z,4.30
2018-05-05T06:10:05.416Z,3.60
2018-05-05T06:11:05.407Z,3.80
2018-05-05T06:13:05.843Z,4.10
2018-05-05T06:14:05.819Z,3.70
2018-05-05T06:16:06.409Z,3.90
2018-05-05T06:17:06.785Z,3.70
2018-05-05T06:19:07.198Z,3.80
2018-05-05T06:20:07.206Z,3.70
2018-05-05T06:22:07.687Z,3.40
2018-05-05T06:23:07.163Z,3.20
2018-05-05T06:25:07.617Z,3.30
2018-05-05T06:26:08.154Z,3.60
2018-05-05T06:28:08.072Z,3.30
2018-05-05T06:29:08.580Z,3.60
2018-05-05T06:31:06.505Z,3.80
2018-05-05T06:32:06.518Z,3.40
2018-05-05T06:34:04.486Z,3.50
2018-05-05T06:35:03.980Z,3.70
2018-05-05T06:37:05.939Z,3.50
2018-05-05T06:38:05.454Z,3.20
2018-05-05T06:40:04.380Z,3.60
2018-05-05T06:41:04.427Z,3.90
2018-05-05T06:43:03.962Z,3.80
2018-05-05T06:44:03.960Z,3.80
2018-05-05T06:46:04.571Z,3.20
2018-05-05T06:47:04.932Z,3.60
2018-05-05T06:49:03.432Z,3.30
2018-05-05T06:50:02.495Z,3.80
2018-05-05T06:52:01.444Z,3.40
2018-05-05T06:53:00.970Z,3.50
2018-05-05T06:54:59.517Z,3.20
2018-05-05T06:55:58.615Z,4.00
2018-05-05T06:57:59.074Z,2.90
2018-05-05T06:58:59.083Z,3.60
2018-05-05T07:00:59.579Z,3.60
2018-05-05T07:02:00.121Z,3.20
2018-05-05T07:04:00.473Z,3.70
2018-05-05T07:05:00.000Z,3.20
2018-05-05T07:06:57.944Z,3.90
2018-05-05T07:07:57.917Z,3.50
2018-05-05T07:09:58.920Z,3.50
2018-05-05T07:10:58.956Z,3.60
2018-05-05T07:12:58.850Z,3.70
2018-05-05T07:13:58.809Z,3.20
2018-05-05T07:15:59.296Z,3.90
2018-05-05T07:16:59.257Z,3.30
2018-05-05T07:18:59.725Z,3.10
2018-05-05T07:19:59.853Z,3.50
2018-05-05T07:22:01.160Z,3.90
2018-05-05T07:23:00.653Z,3.20
2018-05-05T07:25:00.580Z,3.80
2018-05-05T07:26:00.590Z,3.80
2018-05-05T07:28:02.068Z,3.30
2018-05-05T07:29:01.046Z,2.90
2018-05-05T07:31:01.588Z,4.40
2018-05-05T07:32:01.498Z,3.20
2018-05-05T07:33:59.473Z,3.40
2018-05-05T07:34:59.433Z,3.10
2018-05-05T07:36:57.052Z,3.10
2018-05-05T07:37:56.933Z,3.10
2018-05-05T07:39:55.343Z,2.80
2018-05-05T07:40:55.351Z,2.90
2018-05-05T07:42:52.588Z,3.20
2018-05-05T07:43:53.463Z,3.10
2018-05-05T07:45:52.024Z,2.90
2018-05-05T07:46:51.528Z,2.70
2018-05-05T07:48:46.621Z,2.90
2018-05-05T07:49:46.635Z,3.20
2018-05-05T07:51:46.126Z,3.40
2018-05-05T07:52:44.792Z,3.50
2018-05-05T07:54:44.184Z,3.40
2018-05-05T07:55:42.859Z,3.00
2018-05-05T07:57:43.287Z,3.00
2018-05-05T07:58:43.273Z,3.00
2018-05-05T08:00:44.728Z,3.00
2018-05-05T08:01:43.746Z,3.10
2018-05-05T08:03:39.718Z,3.20
2018-05-05T08:04:39.698Z,3.20
2018-05-05T08:06:35.679Z,3.30
2018-05-05T08:07:35.639Z,3.20
2018-05-05T08:09:34.168Z,3.30
2018-05-05T08:10:33.768Z,3.10
2018-05-05T08:12:32.247Z,2.90
2018-05-05T08:13:32.726Z,2.90
2018-05-05T08:15:32.707Z,2.90
2018-05-05T08:16:32.246Z,3.00
2018-05-05T08:18:32.688Z,2.90
2018-05-05T08:19:32.684Z,2.90
2018-05-05T08:21:31.144Z,2.80
2018-05-05T08:22:30.653Z,3.20
2018-05-05T08:24:29.118Z,3.20
2018-05-05T08:25:29.660Z,2.70
2018-05-05T08:27:29.739Z,2.70
2018-05-05T08:28:29.235Z,3.10
2018-05-05T08:30:28.708Z,3.60
2018-05-05T08:31:28.257Z,3.10
2018-05-05T08:33:28.298Z,2.80
2018-05-05T08:34:27.813Z,2.70
2018-05-05T08:36:28.774Z,2.70
2018-05-05T08:37:28.259Z,2.50
2018-05-05T08:39:26.692Z,2.70
2018-05-05T08:40:26.320Z,2.70
2018-05-05T08:42:27.300Z,2.20
2018-05-05T08:43:27.786Z,2.20
2018-05-05T08:45:25.286Z,2.40
2018-05-05T08:46:24.780Z,2.40
2018-05-05T08:48:23.248Z,2.70
2018-05-05T08:49:23.225Z,2.40
2018-05-05T08:51:21.187Z,2.70
2018-05-05T08:52:20.669Z,2.70
2018-05-05T08:54:19.152Z,2.70
2018-05-05T08:55:18.635Z,2.70
2018-05-05T08:57:17.098Z,3.10
2018-05-05T08:58:16.620Z,2.60
2018-05-05T09:00:12.565Z,3.00
2018-05-05T09:01:12.535Z,2.90
2018-05-05T09:03:08.568Z,2.50
2018-05-05T09:04:08.510Z,3.00
2018-05-05T09:06:04.994Z,2.20
2018-05-05T09:07:04.449Z,2.40
2018-05-05T09:09:01.396Z,2.40
2018-05-05T09:10:00.948Z,2.70
2018-05-05T09:11:58.433Z,2.60
2018-05-05T09:12:59.862Z,3.20
2018-05-05T09:14:58.806Z,2.70
2018-05-05T09:15:58.806Z,3.00
2018-05-05T09:17:56.772Z,2.70
2018-05-05T09:18:56.758Z,2.40
2018-05-05T09:20:55.771Z,3.00
2018-05-05T09:21:54.913Z,2.60
2018-05-05T09:23:52.911Z,2.70
2018-05-05T09:24:53.452Z,2.60
2018-05-05T09:26:52.274Z,2.70
2018-05-05T09:27:50.913Z,2.50
2018-05-05T09:29:48.880Z,2.50
2018-05-05T09:30:48.840Z,2.70
2018-05-05T09:32:47.816Z,3.20
2018-05-05T09:33:46.862Z,3.10
2018-05-05T09:35:44.720Z,2.60
2018-05-05T09:36:46.199Z,2.80
2018-05-05T09:38:43.744Z,2.80
2018-05-05T09:39:42.837Z,2.30
2018-05-05T09:41:40.825Z,3.10
2018-05-05T09:42:40.876Z,2.70
2018-05-05T09:44:38.797Z,2.70
2018-05-05T09:45:38.743Z,2.50
2018-05-05T09:47:36.700Z,2.40
2018-05-05T09:48:36.695Z,2.60
2018-05-05T09:50:35.664Z,3.20
2018-05-05T09:51:34.838Z,2.60
2018-05-05T09:53:37.291Z,3.00
2018-05-05T09:54:35.297Z,2.60
2018-05-05T09:56:34.746Z,3.30
2018-05-05T09:57:33.410Z,2.90
2018-05-05T09:59:32.330Z,2.90
2018-05-05T10:00:31.372Z,2.60
2018-05-05T10:02:30.286Z,2.60
2018-05-05T10:03:30.288Z,2.70
2018-05-05T10:05:27.497Z,2.70
2018-05-05T10:06:28.935Z,2.50
2018-05-05T10:08:26.890Z,2.40
2018-05-05T10:09:26.480Z,2.60
2018-05-05T10:11:24.491Z,2.50
2018-05-05T10:12:23.493Z,2.50
2018-05-05T10:14:23.968Z,2.60
2018-05-05T10:15:23.959Z,2.40
2018-05-05T10:17:21.883Z,2.50
2018-05-05T10:18:21.899Z,2.70
2018-05-05T10:20:19.844Z,2.70
2018-05-05T10:21:19.850Z,2.90
2018-05-05T10:23:19.320Z,3.30
2018-05-05T10:24:17.960Z,2.80
2018-05-05T10:26:16.447Z,2.60
2018-05-05T10:27:16.486Z,2.40
2018-05-05T10:29:13.857Z,2.30
2018-05-05T10:30:14.353Z,2.50
2018-05-05T10:32:11.825Z,2.50
2018-05-05T10:33:12.316Z,2.50
2018-05-05T10:35:08.286Z,3.00
2018-05-05T10:36:08.277Z,2.50
2018-05-05T10:38:03.736Z,2.20
2018-05-05T10:39:03.740Z,2.40
2018-05-05T10:41:02.754Z,2.50
2018-05-05T10:41:59.703Z,2.60
2018-05-05T10:43:57.816Z,2.50
2018-05-05T10:44:58.768Z,3.30
2018-05-05T10:46:56.802Z,2.40
2018-05-05T10:47:56.303Z,2.40
2018-05-05T10:49:53.895Z,3.00
2018-05-05T10:50:53.892Z,2.50
2018-05-05T10:52:51.838Z,2.50
2018-05-05T10:53:51.850Z,2.80
2018-05-05T10:55:47.843Z,2.50
2018-05-05T10:56:47.776Z,2.60
2018-05-05T10:58:43.753Z,2.20
2018-05-05T10:59:43.735Z,2.30
2018-05-05T11:01:39.713Z,2.20
2018-05-05T11:02:39.707Z,2.50
2018-05-05T11:04:38.708Z,2.50
2018-05-05T11:05:37.839Z,2.20
2018-05-05T11:07:38.299Z,2.40
2018-05-05T11:08:38.799Z,2.30
2018-05-05T11:10:36.419Z,2.50
2018-05-05T11:11:36.403Z,2.80
2018-05-05T11:13:35.403Z,2.40
2018-05-05T11:14:34.365Z,2.50
2018-05-05T11:16:32.848Z,2.20
2018-05-05T11:17:33.336Z,2.30
2018-05-05T11:19:28.953Z,2.40
2018-05-05T11:20:28.469Z,2.70
2018-05-05T11:22:26.957Z,2.50
2018-05-05T11:23:26.550Z,2.60
2018-05-05T11:25:24.649Z,2.40
2018-05-05T11:26:24.500Z,2.40
2018-05-05T11:28:22.491Z,2.20
2018-05-05T11:29:22.480Z,2.20
2018-05-05T11:31:21.441Z,2.40
2018-05-05T11:32:20.606Z,2.40
2018-05-05T11:34:19.046Z,2.30
2018-05-05T11:35:18.772Z,2.60
2018-05-05T11:37:16.714Z,2.50
2018-05-05T11:38:16.668Z,3.10
2018-05-05T11:40:18.123Z,2.90
2018-05-05T11:41:17.125Z,2.80
2018-05-05T11:43:15.594Z,2.40
2018-05-05T11:44:15.095Z,2.50
2018-05-05T11:46:12.991Z,2.50
2018-05-05T11:47:13.551Z,2.50
2018-05-05T11:49:13.995Z,2.40
2018-05-05T11:50:13.477Z,2.50
2018-05-05T11:52:10.513Z,2.60
2018-05-05T11:53:10.434Z,2.90
2018-05-05T11:55:09.443Z,2.40
2018-05-05T11:56:09.535Z,2.70
2018-05-05T11:58:07.542Z,2.20
2018-05-05T11:59:06.691Z,2.20
2018-05-05T12:01:03.630Z,2.70
2018-05-05T12:02:04.181Z,2.90
2018-05-05T12:04:04.117Z,2.30
2018-05-05T12:05:04.100Z,2.30
2018-05-05T12:07:02.052Z,2.60
2018-05-05T12:08:02.046Z,2.40
2018-05-05T12:10:02.584Z,2.60
2018-05-05T12:11:02.506Z,2.40
2018-05-05T12:13:01.465Z,2.20
2018-05-05T12:14:00.614Z,2.50
2018-05-05T12:16:02.102Z,2.60
2018-05-05T12:17:01.060Z,2.60
2018-05-05T12:18:59.060Z,2.60
2018-05-05T12:19:59.015Z,2.50
2018-05-05T12:21:57.568Z,2.70
2018-05-05T12:22:57.137Z,3.30
2018-05-05T12:24:53.159Z,2.30
2018-05-05T12:25:53.103Z,2.60
2018-05-05T12:27:49.938Z,2.70
2018-05-05T12:30:08.868Z,2.50
2018-05-05T12:31:09.855Z,2.20
2018-05-05T12:33:06.980Z,2.20
2018-05-05T12:34:07.014Z,2.30
2018-05-05T12:36:07.158Z,2.50
2018-05-05T12:37:06.695Z,2.70
2018-05-05T12:39:05.570Z,2.40
2018-05-05T12:40:04.702Z,2.20
2018-05-05T12:42:00.659Z,2.40
2018-05-05T12:43:00.656Z,2.30
2018-05-05T12:44:59.099Z,2.30
2018-05-05T12:45:58.621Z,2.60
2018-05-05T12:47:59.113Z,2.20
2018-05-05T12:48:59.067Z,2.20
2018-05-05T12:51:00.602Z,2.40
2018-05-05T12:52:00.532Z,2.30
2018-05-05T12:53:57.564Z,2.10
2018-05-05T12:54:58.533Z,2.00
2018-05-05T12:56:53.514Z,2.30
2018-05-05T12:57:54.520Z,2.30
2018-05-05T12:59:54.992Z,2.30
2018-05-05T13:00:55.497Z,2.60
2018-05-05T13:02:53.000Z,2.40
2018-05-05T13:03:52.951Z,2.50
2018-05-05T13:06:00.968Z,2.50
2018-05-05T13:07:00.839Z,2.30
2018-05-05T13:09:00.808Z,2.40
2018-05-05T13:09:59.981Z,2.30
2018-05-05T13:11:58.456Z,2.50
2018-05-05T13:12:58.955Z,2.70
2018-05-05T13:14:56.051Z,2.50
2018-05-05T13:15:56.048Z,2.30
2018-05-05T13:18:00.070Z,2.30
2018-05-05T13:19:01.018Z,2.20
2018-05-05T13:20:59.041Z,2.30
2018-05-05T13:21:58.977Z,2.50
2018-05-05T13:23:56.119Z,2.20
2018-05-05T13:24:54.608Z,2.60
2018-05-05T13:26:52.068Z,2.40
2018-05-05T13:27:52.049Z,2.20
2018-05-05T13:29:51.536Z,2.30
2018-05-05T13:30:50.157Z,2.20
2018-05-05T13:32:48.296Z,2.40
2018-05-05T13:33:49.112Z,2.10
2018-05-05T13:35:46.740Z,2.30
2018-05-05T13:36:47.734Z,2.20
2018-05-05T13:38:44.190Z,2.80
2018-05-05T13:39:45.164Z,2.20
2018-05-05T13:41:45.152Z,2.50
2018-05-05T13:42:44.676Z,2.70
2018-05-05T13:44:43.641Z,1.90
2018-05-05T13:45:43.279Z,2.20
2018-05-05T13:47:40.577Z,3.00
2018-05-05T13:48:40.601Z,2.70
2018-05-05T13:50:38.566Z,2.20
2018-05-05T13:51:39.565Z,2.30
2018-05-05T13:53:36.715Z,2.40
2018-05-05T13:54:37.525Z,2.50
2018-05-05T13:56:33.180Z,3.20
2018-05-05T13:57:32.649Z,2.80
2018-05-05T13:59:29.624Z,2.40
2018-05-05T14:00:28.633Z,2.80
2018-05-05T14:02:27.127Z,2.40
2018-05-05T14:03:26.766Z,2.60
2018-05-05T14:05:24.789Z,2.40
2018-05-05T14:06:24.764Z,2.40
2018-05-05T14:08:27.207Z,2.70
2018-05-05T14:09:26.744Z,2.30
2018-05-05T14:11:26.396Z,2.40
2018-05-05T14:12:26.441Z,2.50
2018-05-05T14:14:24.359Z,2.80
2018-05-05T14:15:25.359Z,2.30
2018-05-05T14:17:25.824Z,2.30
2018-05-05T14:18:24.828Z,2.30
2018-05-05T14:20:23.877Z,2.70
2018-05-05T14:21:22.934Z,2.90
2018-05-05T14:23:21.398Z,2.60
2018-05-05T14:24:20.906Z,2.80
2018-05-05T14:26:19.419Z,2.90
2018-05-05T14:27:19.859Z,2.60
2018-05-05T14:29:17.477Z,2.40
2018-05-05T14:30:17.117Z,2.50
2018-05-05T14:32:15.602Z,2.50
2018-05-05T14:33:15.099Z,2.70
2018-05-05T14:35:13.565Z,3.20
2018-05-05T14:36:13.036Z,2.90
2018-05-05T14:38:14.510Z,2.90
2018-05-05T14:39:13.516Z,2.40
2018-05-05T14:41:11.501Z,2.30
2018-05-05T14:42:09.495Z,2.60
2018-05-05T14:44:05.447Z,2.40
2018-05-05T14:45:05.981Z,2.40
2018-05-05T14:47:06.912Z,2.30
2018-05-05T14:48:05.917Z,2.50
2018-05-05T14:50:04.870Z,3.00
2018-05-05T14:51:05.906Z,2.70
2018-05-05T14:53:03.340Z,2.40
2018-05-05T14:54:02.856Z,2.30
2018-05-05T14:56:01.957Z,2.50
2018-05-05T14:57:00.062Z,2.20
2018-05-05T14:58:59.117Z,2.80
2018-05-05T14:59:59.005Z,3.10
2018-05-05T15:01:55.649Z,2.90
2018-05-05T15:02:54.150Z,2.70
2018-05-05T15:04:52.116Z,2.60
2018-05-05T15:05:51.060Z,2.80
2018-05-05T15:07:50.604Z,2.90
2018-05-05T15:08:49.269Z,2.90
2018-05-05T15:10:47.205Z,2.80
2018-05-05T15:11:47.770Z,2.50
2018-05-05T15:13:45.242Z,2.30
2018-05-05T15:14:45.215Z,2.60
2018-05-05T15:16:43.684Z,2.40
2018-05-05T15:17:43.687Z,2.30
2018-05-05T15:19:44.175Z,2.30
2018-05-05T15:20:43.682Z,2.30
2018-05-05T15:22:41.677Z,2.30
2018-05-05T15:23:42.133Z,2.40
2018-05-05T15:25:41.078Z,2.50
2018-05-05T15:26:40.086Z,2.50
2018-05-05T15:28:37.557Z,2.90
2018-05-05T15:29:37.530Z,3.00
2018-05-05T15:31:35.495Z,2.70
2018-05-05T15:32:35.996Z,2.60
2018-05-05T15:34:34.495Z,2.20
2018-05-05T15:35:34.045Z,2.40
2018-05-05T15:37:32.919Z,2.80
2018-05-05T15:38:31.442Z,2.30
2018-05-05T15:40:27.959Z,2.30
2018-05-05T15:41:27.894Z,2.20
2018-05-05T15:43:24.842Z,2.40
2018-05-05T15:44:23.341Z,2.50
2018-05-05T15:46:21.329Z,2.40
2018-05-05T15:47:21.812Z,2.80
2018-05-05T15:49:20.274Z,2.90
2018-05-05T15:50:20.290Z,2.40
2018-05-05T15:52:17.564Z,2.40
2018-05-05T15:53:17.510Z,2.70
2018-05-05T15:55:14.494Z,2.50
2018-05-05T15:56:14.489Z,2.40
2018-05-05T15:58:10.043Z,2.90
2018-05-05T15:59:09.570Z,2.50
2018-05-05T16:01:06.084Z,2.30
2018-05-05T16:02:06.035Z,1.90
2018-05-05T16:04:05.020Z,2.50
2018-05-05T16:05:03.685Z,2.50
2018-05-05T16:07:04.206Z,2.10
2018-05-05T16:08:04.113Z,2.70
2018-05-05T16:10:00.093Z,2.70
2018-05-05T16:11:00.090Z,2.60
2018-05-05T16:12:58.063Z,2.50
2018-05-05T16:13:58.552Z,2.60
2018-05-05T16:15:56.496Z,2.90
2018-05-05T16:16:56.503Z,2.80
2018-05-05T16:18:53.150Z,3.30
2018-05-05T16:19:52.472Z,2.40
2018-05-05T16:21:48.937Z,2.50
2018-05-05T16:22:47.915Z,2.50
2018-05-05T16:24:47.875Z,3.10
2018-05-05T16:25:46.015Z,2.80
2018-05-05T16:27:44.482Z,3.20
2018-05-05T16:28:44.466Z,3.40
2018-05-05T16:30:42.926Z,2.60
2018-05-05T16:31:42.105Z,2.80
2018-05-05T16:33:40.184Z,3.60
2018-05-05T16:34:41.060Z,3.10
2018-05-05T16:36:38.183Z,2.90
2018-05-05T16:37:38.190Z,3.20
2018-05-05T16:39:37.128Z,3.00
2018-05-05T16:40:36.652Z,2.90
2018-05-05T16:42:34.662Z,2.80
2018-05-05T16:43:34.243Z,2.90
2018-05-05T16:45:33.275Z,3.00
2018-05-05T16:46:32.712Z,3.80
2018-05-05T16:48:31.535Z,2.90
2018-05-05T16:49:38.746Z,3.30
2018-05-05T16:51:26.813Z,3.10
2018-05-05T16:52:25.831Z,3.40
2018-05-05T16:54:26.078Z,3.40
2018-05-05T16:55:26.072Z,3.60
2018-05-05T16:57:23.537Z,3.40
2018-05-05T16:58:23.010Z,2.80
2018-05-05T17:00:21.006Z,2.90
2018-05-05T17:01:19.004Z,3.20
2018-05-05T17:03:17.983Z,3.30
2018-05-05T17:04:18.014Z,3.30
2018-05-05T17:06:15.588Z,3.10
2018-05-05T17:07:15.049Z,3.40
2018-05-05T17:09:13.042Z,4.60
2018-05-05T17:10:13.103Z,3.20
2018-05-05T17:12:11.553Z,3.10
2018-05-05T17:13:11.974Z,3.20
2018-05-05T17:15:11.487Z,4.40
2018-05-05T17:16:11.569Z,3.10
2018-05-05T17:18:12.914Z,3.00
2018-05-05T17:19:13.937Z,3.10
2018-05-05T17:21:09.445Z,2.50
2018-05-05T17:22:09.433Z,2.60
2018-05-05T17:24:05.382Z,2.70
2018-05-05T17:25:05.433Z,2.60
2018-05-05T17:27:04.336Z,2.90
2018-05-05T17:28:02.967Z,2.70
2018-05-05T17:30:02.442Z,2.70
2018-05-05T17:31:01.115Z,3.20
2018-05-05T17:32:59.116Z,2.60
2018-05-05T17:33:59.078Z,2.60
2018-05-05T17:35:57.022Z,2.70
2018-05-05T17:36:57.016Z,2.90
2018-05-05T17:38:55.478Z,2.90
2018-05-05T17:39:55.164Z,3.00
2018-05-05T17:41:55.697Z,2.90
2018-05-05T17:42:56.130Z,2.70
2018-05-05T17:44:53.582Z,2.90
2018-05-05T17:45:54.085Z,3.20
2018-05-05T17:47:52.039Z,2.90
2018-05-05T17:48:51.694Z,3.10
2018-05-05T17:50:50.165Z,3.00
2018-05-05T17:51:49.818Z,3.10
2018-05-05T17:53:50.284Z,3.60
2018-05-05T17:54:51.269Z,2.90
2018-05-05T17:56:49.331Z,2.80
2018-05-05T17:57:48.394Z,3.10
2018-05-05T17:59:46.855Z,3.30
2018-05-05T18:00:48.359Z,3.00
2018-05-05T18:02:44.486Z,3.20
2018-05-05T18:03:44.993Z,3.60
2018-05-05T18:05:41.410Z,3.50
2018-05-05T18:06:41.402Z,2.80
2018-05-05T18:08:37.878Z,2.70
2018-05-05T18:09:37.868Z,2.90
2018-05-05T18:11:35.344Z,3.60
2018-05-05T18:12:35.361Z,2.90
2018-05-05T18:14:34.310Z,2.90
2018-05-05T18:15:33.293Z,3.10
2018-05-05T18:17:32.263Z,3.30
2018-05-05T18:18:31.263Z,3.10
2018-05-05T18:20:30.744Z,3.10
2018-05-05T18:21:29.434Z,3.20
2018-05-05T18:23:28.864Z,3.20
2018-05-05T18:24:27.371Z,3.20
2018-05-05T18:26:26.870Z,2.90
2018-05-05T18:27:25.455Z,3.00
2018-05-05T18:29:27.416Z,2.80
2018-05-05T18:30:25.934Z,2.60
2018-05-05T18:32:25.902Z,3.30
2018-05-05T18:33:24.048Z,3.80
2018-05-05T18:35:22.539Z,3.00
2018-05-05T18:36:22.157Z,3.20
2018-05-05T18:38:20.129Z,3.30
2018-05-05T18:39:20.105Z,3.20
2018-05-05T18:41:18.106Z,3.50
2018-05-05T18:42:19.072Z,3.50
2018-05-05T18:44:18.562Z,3.60
2018-05-05T18:45:18.662Z,3.70
2018-05-05T18:47:16.544Z,3.50
2018-05-05T18:48:17.034Z,3.20
2018-05-05T18:50:16.952Z,3.20
2018-05-05T18:51:14.608Z,3.60
2018-05-05T18:53:13.068Z,3.10
2018-05-05T18:54:12.717Z,3.50
2018-05-05T18:56:11.198Z,3.40
2018-05-05T18:57:11.727Z,3.40
2018-05-05T18:59:09.747Z,3.20
2018-05-05T19:00:08.744Z,3.40
2018-05-05T19:02:05.215Z,2.40
2018-05-05T19:03:04.720Z,2.70
2018-05-05T19:05:03.150Z,4.00
2018-05-05T19:06:02.654Z,3.10
2018-05-05T19:08:00.642Z,3.30
2018-05-05T19:09:00.611Z,3.30
2018-05-05T19:10:58.742Z,3.20
2018-05-05T19:11:58.754Z,3.60
2018-05-05T19:13:59.232Z,3.10
2018-05-05T19:15:00.200Z,3.30
2018-05-05T19:16:58.164Z,3.10
2018-05-05T19:17:57.668Z,3.80
2018-05-05T19:19:55.304Z,3.10
2018-05-05T19:20:55.301Z,2.70
2018-05-05T19:22:54.762Z,3.00
2018-05-05T19:23:54.263Z,2.90
2018-05-05T19:25:51.375Z,3.20
2018-05-05T19:26:51.879Z,3.20
2018-05-05T19:28:50.773Z,3.10
2018-05-05T19:29:50.294Z,2.80
2018-05-05T19:31:48.377Z,2.90
2018-05-05T19:32:48.300Z,3.40
2018-05-05T19:34:45.872Z,3.10
2018-05-05T19:35:45.861Z,3.30
2018-05-05T19:37:43.343Z,3.20
2018-05-05T19:38:43.296Z,3.40
2018-05-05T19:40:42.764Z,3.20
2018-05-05T19:41:41.387Z,3.70
2018-05-05T19:43:39.362Z,2.80
2018-05-05T19:44:39.376Z,2.90
2018-05-05T19:46:38.423Z,2.90
2018-05-05T19:47:37.465Z,3.40
2018-05-05T19:49:36.934Z,3.40
2018-05-05T19:50:35.620Z,3.10